createdAt,value
2017-11-21T00:00:26.938Z,8.07
2017-11-21T00:02:52.900Z,7.60
2017-11-21T00:05:18.821Z,6.80
2017-11-21T00:07:44.760Z,5.70
2017-11-21T00:10:10.671Z,5.73
2017-11-21T00:12:36.600Z,6.33
2017-11-21T00:15:02.509Z,6.20
2017-11-21T00:17:28.436Z,5.40
2017-11-21T00:19:54.356Z,5.70
2017-11-21T00:22:31.284Z,5.10
2017-11-21T00:24:57.302Z,5.90
2017-11-21T00:27:23.225Z,5.53
2017-11-21T00:29:49.145Z,5.17
2017-11-21T00:32:15.100Z,5.30
2017-11-21T00:34:41.025Z,4.77
2017-11-21T00:37:06.939Z,5.00
2017-11-21T00:39:32.844Z,4.93
2017-11-21T00:41:58.760Z,5.37
2017-11-21T00:44:24.684Z,4.67
2017-11-21T00:46:50.636Z,4.50
2017-11-21T00:49:16.544Z,4.30
2017-11-21T00:51:42.482Z,4.67
2017-11-21T00:54:08.399Z,4.20
2017-11-21T00:56:34.507Z,3.77
2017-11-21T00:59:00.423Z,4.17
2017-11-21T01:01:26.386Z,4.23
2017-11-21T01:03:53.128Z,4.30
2017-11-21T01:06:19.797Z,4.53
2017-11-21T01:08:45.758Z,4.97
2017-11-21T01:11:11.703Z,4.33
2017-11-21T01:13:38.382Z,3.87
2017-11-21T01:16:04.323Z,3.70
2017-11-21T01:18:30.275Z,3.80
2017-11-21T01:20:56.234Z,3.73
2017-11-21T01:23:22.175Z,3.90
2017-11-21T01:25:48.088Z,3.90
2017-11-21T01:28:14.773Z,4.27
2017-11-21T01:30:40.673Z,4.10
2017-11-21T01:33:06.588Z,3.67
2017-11-21T01:35:32.529Z,4.00
2017-11-21T01:37:58.433Z,3.80
2017-11-21T01:40:24.351Z,4.00
2017-11-21T01:42:50.292Z,3.80
2017-11-21T01:45:16.230Z,3.73
2017-11-21T01:47:42.953Z,3.60
2017-11-21T01:50:09.618Z,3.30
2017-11-21T01:52:35.528Z,3.87
2017-11-21T01:55:02.196Z,3.77
2017-11-21T01:57:28.116Z,3.87
2017-11-21T01:59:54.040Z,3.60
2017-11-21T02:02:19.959Z,3.23
2017-11-21T02:04:45.906Z,3.80
2017-11-21T02:07:11.814Z,3.43
2017-11-21T02:09:37.753Z,3.50
2017-11-21T02:12:03.652Z,3.60
2017-11-21T02:14:29.534Z,4.40
2017-11-21T02:16:55.538Z,3.40
2017-11-21T02:19:21.412Z,3.00
2017-11-21T02:21:47.352Z,3.80
2017-11-21T02:24:13.299Z,3.60
2017-11-21T02:26:39.991Z,3.80
2017-11-21T02:29:05.893Z,3.30
2017-11-21T02:31:31.808Z,3.60
2017-11-21T02:33:57.803Z,3.90
2017-11-21T02:36:23.714Z,3.67
2017-11-21T02:38:50.386Z,4.07
2017-11-21T02:41:16.307Z,3.60
2017-11-21T02:43:42.209Z,3.80
2017-11-21T02:46:08.903Z,3.63
2017-11-21T02:48:34.833Z,3.27
2017-11-21T02:51:00.761Z,3.53
2017-11-21T02:53:26.746Z,3.53
2017-11-21T02:55:52.676Z,3.60
2017-11-21T02:58:18.614Z,3.90
2017-11-21T03:00:44.543Z,3.37
2017-11-21T03:03:10.464Z,3.70
2017-11-21T03:05:36.393Z,3.97
2017-11-21T03:08:02.294Z,4.27
2017-11-21T03:10:28.220Z,4.33
2017-11-21T03:12:54.143Z,4.47
2017-11-21T03:15:20.058Z,4.50
2017-11-21T03:17:45.947Z,4.20
2017-11-21T03:20:32.944Z,3.90
2017-11-21T03:23:11.120Z,3.90
2017-11-21T03:25:50.198Z,4.23
2017-11-21T03:28:16.168Z,4.70
2017-11-21T03:30:42.854Z,4.37
2017-11-21T03:33:08.787Z,5.17
2017-11-21T03:35:34.753Z,4.27
2017-11-21T03:38:01.423Z,4.60
2017-11-21T03:40:27.404Z,4.73
2017-11-21T03:42:53.327Z,4.97
2017-11-21T03:45:19.961Z,5.20
2017-11-21T03:47:47.509Z,4.77
2017-11-21T03:50:13.463Z,5.30
2017-11-21T03:52:44.264Z,5.20
2017-11-21T03:55:12.733Z,5.10
2017-11-21T03:57:38.680Z,6.00
2017-11-21T04:00:05.756Z,5.27
2017-11-21T04:02:31.693Z,5.60
2017-11-21T04:04:57.959Z,5.00
2017-11-21T04:07:23.895Z,4.87
2017-11-21T04:09:52.072Z,5.20
2017-11-21T04:12:18.005Z,4.90
2017-11-21T04:14:43.921Z,5.63
2017-11-21T04:17:09.909Z,5.20
2017-11-21T04:19:35.835Z,5.50
2017-11-21T04:22:01.880Z,5.47
2017-11-21T04:24:27.801Z,5.33
2017-11-21T04:26:54.463Z,5.80
2017-11-21T04:29:20.375Z,6.57
2017-11-21T04:31:46.304Z,5.67
2017-11-21T04:34:12.344Z,5.70
2017-11-21T04:36:38.298Z,5.90
2017-11-21T04:39:04.417Z,5.90
2017-11-21T04:41:30.402Z,5.50
2017-11-21T04:43:56.368Z,5.97
2017-11-21T04:46:22.312Z,5.70
2017-11-21T04:48:48.963Z,6.10
2017-11-21T04:51:14.859Z,6.70
2017-11-21T04:53:40.760Z,6.43
2017-11-21T04:56:06.696Z,6.20
2017-11-21T04:58:32.629Z,7.00
2017-11-21T05:00:58.533Z,6.03
2017-11-21T05:03:24.417Z,5.70
2017-11-21T05:05:50.345Z,6.60
2017-11-21T05:08:16.252Z,6.47
2017-11-21T05:10:42.167Z,6.90
2017-11-21T05:13:08.096Z,6.13
2017-11-21T05:15:34.041Z,5.70
2017-11-21T05:18:00.005Z,6.90
2017-11-21T05:20:26.676Z,6.17
2017-11-21T05:22:58.678Z,5.63
2017-11-21T05:25:28.957Z,5.60
2017-11-21T05:27:54.949Z,5.40
2017-11-21T05:30:20.842Z,5.97
2017-11-21T05:32:59.047Z,5.30
2017-11-21T05:35:25.013Z,5.23
2017-11-21T05:37:50.947Z,6.53
2017-11-21T05:40:17.003Z,5.30
2017-11-21T05:42:42.912Z,5.57
2017-11-21T05:45:08.831Z,5.87
2017-11-21T05:47:34.732Z,5.70
2017-11-21T05:50:00.660Z,6.00
2017-11-21T05:52:26.596Z,5.30
2017-11-21T05:54:52.569Z,5.77
2017-11-21T05:57:18.520Z,6.60
2017-11-21T05:59:44.489Z,6.10
2017-11-21T06:02:10.498Z,6.70
2017-11-21T06:04:36.468Z,6.20
2017-11-21T06:07:02.428Z,6.53
2017-11-21T06:09:28.371Z,6.17
2017-11-21T06:11:54.322Z,5.67
2017-11-21T06:14:20.306Z,6.20
2017-11-21T06:16:46.229Z,5.93
2017-11-21T06:19:12.165Z,7.10
2017-11-21T06:21:38.111Z,6.23
2017-11-21T06:24:04.546Z,6.63
2017-11-21T06:26:30.537Z,6.70
2017-11-21T06:28:56.432Z,7.20
2017-11-21T06:31:22.367Z,6.70
2017-11-21T06:33:48.312Z,6.90
2017-11-21T06:36:14.242Z,6.43
2017-11-21T06:38:40.200Z,6.20
2017-11-21T06:41:06.181Z,6.10
2017-11-21T06:43:32.088Z,6.00
2017-11-21T06:45:58.025Z,7.07
2017-11-21T06:48:23.924Z,5.73
2017-11-21T06:50:49.866Z,5.47
2017-11-21T06:53:15.804Z,5.60
2017-11-21T06:55:41.702Z,5.63
2017-11-21T06:58:07.680Z,5.73
2017-11-21T07:00:33.667Z,5.77
2017-11-21T07:02:59.636Z,5.27
2017-11-21T07:05:25.643Z,5.90
2017-11-21T07:07:51.559Z,6.17
2017-11-21T07:10:17.539Z,6.10
2017-11-21T07:12:43.454Z,5.07
2017-11-21T07:15:09.380Z,5.73
2017-11-21T07:17:35.296Z,5.60
2017-11-21T07:20:01.223Z,5.10
2017-11-21T07:22:27.116Z,5.17
2017-11-21T07:24:53.053Z,5.10
2017-11-21T07:27:18.949Z,4.90
2017-11-21T07:29:44.852Z,5.23
2017-11-21T07:32:10.833Z,5.10
2017-11-21T07:34:36.788Z,5.40
2017-11-21T07:37:02.705Z,4.93
2017-11-21T07:39:29.495Z,5.73
2017-11-21T07:41:55.649Z,4.63
2017-11-21T07:44:21.626Z,5.00
2017-11-21T07:46:48.360Z,5.40
2017-11-21T07:49:14.263Z,4.53
2017-11-21T07:51:40.184Z,6.10
2017-11-21T07:54:06.108Z,4.50
2017-11-21T07:56:32.021Z,4.43
2017-11-21T07:58:57.960Z,4.30
2017-11-21T08:01:24.660Z,4.70
2017-11-21T08:03:52.584Z,4.23
2017-11-21T08:06:18.501Z,4.13
2017-11-21T08:08:44.447Z,4.30
2017-11-21T08:11:10.400Z,4.03
2017-11-21T08:13:36.383Z,3.83
2017-11-21T08:16:02.324Z,4.10
2017-11-21T08:18:28.260Z,4.50
2017-11-21T08:20:54.195Z,3.50
2017-11-21T08:23:20.101Z,3.60
2017-11-21T08:25:46.116Z,3.73
2017-11-21T08:28:12.021Z,3.20
2017-11-21T08:30:37.968Z,3.27
2017-11-21T08:33:03.880Z,3.17
2017-11-21T08:35:29.878Z,3.53
2017-11-21T08:37:55.777Z,3.60
2017-11-21T08:40:21.737Z,3.40
2017-11-21T08:42:47.685Z,3.60
2017-11-21T08:45:13.701Z,3.10
2017-11-21T08:47:39.637Z,3.13
2017-11-21T08:50:05.604Z,3.10
2017-11-21T08:52:32.509Z,3.43
2017-11-21T08:54:58.419Z,3.00
2017-11-21T08:57:24.327Z,3.60
2017-11-21T08:59:50.260Z,3.23
2017-11-21T09:02:16.200Z,3.03
2017-11-21T09:04:42.860Z,2.90
2017-11-21T09:07:08.850Z,3.00
2017-11-21T09:09:35.517Z,3.20
2017-11-21T09:12:01.497Z,3.17
2017-11-21T09:14:27.420Z,2.90
2017-11-21T09:16:53.332Z,3.40
2017-11-21T09:19:19.256Z,3.60
2017-11-21T09:21:45.276Z,3.70
2017-11-21T09:24:11.202Z,3.73
2017-11-21T09:26:37.158Z,3.40
2017-11-21T09:29:03.995Z,3.97
2017-11-21T09:31:29.924Z,3.63
2017-11-21T09:33:55.840Z,4.47
2017-11-21T09:36:21.782Z,4.13
2017-11-21T09:38:47.742Z,3.20
2017-11-21T09:41:13.686Z,3.70
2017-11-21T09:43:40.337Z,3.30
2017-11-21T09:46:06.280Z,3.50
2017-11-21T09:48:32.194Z,3.63
2017-11-21T09:50:58.881Z,4.20
2017-11-21T09:53:24.912Z,3.37
2017-11-21T09:55:50.866Z,3.63
2017-11-21T09:58:16.840Z,3.60
2017-11-21T10:00:42.855Z,3.80
2017-11-21T10:03:08.807Z,4.13
2017-11-21T10:05:35.753Z,4.50
2017-11-21T10:08:02.442Z,4.20
2017-11-21T10:10:28.397Z,5.13
2017-11-21T10:12:54.347Z,4.30
2017-11-21T10:15:20.249Z,5.00
2017-11-21T10:17:46.215Z,4.57
2017-11-21T10:20:12.139Z,4.50
2017-11-21T10:22:38.172Z,5.10
2017-11-21T10:25:04.744Z,5.30
2017-11-21T10:27:30.692Z,4.93
2017-11-21T10:29:57.471Z,5.00
2017-11-21T10:32:23.420Z,4.70
2017-11-21T10:34:49.350Z,5.10
2017-11-21T10:37:15.328Z,5.27
2017-11-21T10:39:41.225Z,4.57
2017-11-21T10:42:07.157Z,5.70
2017-11-21T10:44:33.119Z,5.00
2017-11-21T10:46:59.074Z,4.70
2017-11-21T10:49:25.002Z,4.50
2017-11-21T10:51:50.937Z,4.80
2017-11-21T10:54:16.860Z,4.70
2017-11-21T10:56:42.896Z,4.37
2017-11-21T10:59:08.867Z,4.43
2017-11-21T11:01:35.575Z,4.00
2017-11-21T11:04:01.590Z,4.97
2017-11-21T11:06:27.513Z,4.27
2017-11-21T11:08:53.432Z,4.90
2017-11-21T11:11:19.404Z,5.20
2017-11-21T11:13:45.309Z,5.10
2017-11-21T11:16:11.219Z,5.00
2017-11-21T11:18:37.136Z,4.80
2017-11-21T11:21:03.082Z,5.03
2017-11-21T11:23:29.021Z,4.70
2017-11-21T11:25:55.020Z,5.33
2017-11-21T11:28:20.943Z,5.00
2017-11-21T11:30:47.622Z,4.83
2017-11-21T11:33:13.530Z,4.50
2017-11-21T11:35:39.473Z,5.37
2017-11-21T11:38:05.378Z,5.60
2017-11-21T11:40:31.282Z,5.90
2017-11-21T11:42:57.983Z,4.97
2017-11-21T11:45:23.932Z,4.93
2017-11-21T11:47:49.832Z,5.00
2017-11-21T11:50:15.770Z,5.30
2017-11-21T11:52:41.667Z,4.93
2017-11-21T11:55:07.611Z,4.73
2017-11-21T11:57:33.600Z,5.30
2017-11-21T12:00:00.493Z,5.10
2017-11-21T12:02:26.959Z,5.37
2017-11-21T12:04:52.915Z,5.03
2017-11-21T12:07:18.837Z,4.97
2017-11-21T12:09:45.481Z,4.97
2017-11-21T12:12:11.397Z,5.37
2017-11-21T12:14:37.307Z,5.27
2017-11-21T12:17:03.218Z,5.07
2017-11-21T12:19:29.163Z,5.30
2017-11-21T12:21:55.061Z,5.60
2017-11-21T12:24:21.753Z,6.00
2017-11-21T12:26:47.687Z,5.20
2017-11-21T12:29:13.601Z,5.37
2017-11-21T12:31:40.084Z,5.50
2017-11-21T12:34:06.045Z,6.50
2017-11-21T12:36:32.727Z,5.30
2017-11-21T12:38:58.636Z,5.80
2017-11-21T12:41:25.448Z,6.43
2017-11-21T12:43:51.345Z,6.30
2017-11-21T12:46:18.036Z,6.00
2017-11-21T12:48:43.980Z,6.60
2017-11-21T12:51:09.900Z,8.23
2017-11-21T12:53:36.590Z,6.90
2017-11-21T12:56:02.584Z,7.97
2017-11-21T12:58:28.781Z,8.63
2017-11-21T13:00:55.436Z,8.73
2017-11-21T13:03:21.364Z,7.87
2017-11-21T13:05:47.349Z,8.77
2017-11-21T13:08:13.256Z,8.90
2017-11-21T13:10:39.210Z,8.77
2017-11-21T13:13:05.981Z,9.27
2017-11-21T13:15:31.893Z,9.80
2017-11-21T13:17:57.782Z,9.57
2017-11-21T13:20:24.393Z,10.20
2017-11-21T13:22:50.403Z,9.90
2017-11-21T13:25:16.333Z,11.17
2017-11-21T13:27:42.364Z,11.10
2017-11-21T13:30:08.467Z,11.50
2017-11-21T13:32:34.415Z,10.57
2017-11-21T13:35:00.329Z,10.80
2017-11-21T13:37:26.211Z,10.93
2017-11-21T13:39:52.114Z,11.83
2017-11-21T13:42:18.024Z,10.20
2017-11-21T13:44:43.938Z,11.77
2017-11-21T13:47:10.596Z,11.47
2017-11-21T13:49:36.516Z,11.33
2017-11-21T13:52:02.503Z,11.90
2017-11-21T13:54:28.423Z,12.03
2017-11-21T13:56:54.557Z,12.17
2017-11-21T13:59:21.223Z,12.10
2017-11-21T14:01:47.760Z,12.83
2017-11-21T14:04:13.718Z,12.90
2017-11-21T14:06:39.612Z,13.70
2017-11-21T14:09:05.560Z,13.20
2017-11-21T14:11:31.514Z,12.27
2017-11-21T14:13:58.206Z,12.60
2017-11-21T14:16:24.104Z,11.97
2017-11-21T14:18:50.010Z,11.53
2017-11-21T14:21:15.934Z,11.90
2017-11-21T14:23:41.833Z,11.90
2017-11-21T14:26:07.730Z,11.83
2017-11-21T14:28:33.692Z,11.20
2017-11-21T14:30:59.639Z,10.90
2017-11-21T14:33:25.570Z,10.47
2017-11-21T14:35:51.504Z,10.67
2017-11-21T14:38:17.442Z,10.43
2017-11-21T14:40:43.385Z,9.87
2017-11-21T14:43:09.288Z,10.20
2017-11-21T14:45:35.240Z,9.67
2017-11-21T14:48:01.154Z,9.47
2017-11-21T14:50:27.103Z,10.23
2017-11-21T14:52:53.044Z,9.50
2017-11-21T14:55:18.983Z,9.40
2017-11-21T14:57:44.886Z,9.30
2017-11-21T15:00:10.788Z,8.80
2017-11-21T15:02:36.807Z,9.97
2017-11-21T15:05:02.757Z,10.53
2017-11-21T15:07:28.665Z,9.90
2017-11-21T15:09:54.600Z,9.97
2017-11-21T15:12:20.547Z,10.40
2017-11-21T15:14:47.172Z,9.87
2017-11-21T15:17:13.092Z,10.10
2017-11-21T15:19:39.009Z,12.30
2017-11-21T15:22:04.952Z,13.17
2017-11-21T15:24:30.868Z,12.17
2017-11-21T15:26:56.792Z,11.60
2017-11-21T15:29:22.800Z,12.50
2017-11-21T15:31:49.543Z,12.73
2017-11-21T15:34:15.481Z,14.60
2017-11-21T15:36:41.412Z,13.27
2017-11-21T15:39:07.347Z,12.97
2017-11-21T15:41:33.325Z,14.77
2017-11-21T15:44:00.065Z,14.00
2017-11-21T15:46:25.961Z,13.73
2017-11-21T15:48:51.887Z,16.03
2017-11-21T15:51:17.815Z,14.53
2017-11-21T15:53:43.751Z,15.40
2017-11-21T15:56:10.416Z,14.43
2017-11-21T15:58:36.400Z,13.93
2017-11-21T16:01:02.341Z,15.27
2017-11-21T16:03:29.093Z,15.60
2017-11-21T16:05:54.997Z,13.63
2017-11-21T16:08:20.933Z,15.10
2017-11-21T16:10:46.911Z,15.13
2017-11-21T16:13:12.865Z,15.10
2017-11-21T16:15:38.830Z,15.63
2017-11-21T16:18:04.794Z,15.57
2017-11-21T16:20:30.763Z,15.90
2017-11-21T16:22:56.690Z,16.13
2017-11-21T16:25:22.613Z,15.67
2017-11-21T16:27:48.513Z,14.97
2017-11-21T16:30:14.468Z,16.97
2017-11-21T16:32:40.403Z,15.13
2017-11-21T16:35:06.322Z,15.00
2017-11-21T16:37:32.280Z,15.53
2017-11-21T16:39:58.267Z,16.60
2017-11-21T16:42:24.214Z,14.57
2017-11-21T16:44:50.148Z,16.00
2017-11-21T16:47:16.114Z,16.47
2017-11-21T16:49:42.050Z,14.80
2017-11-21T16:52:07.977Z,15.33
2017-11-21T16:54:34.038Z,14.30
2017-11-21T16:57:00.929Z,16.77
2017-11-21T16:59:26.866Z,14.40
2017-11-21T17:01:52.824Z,14.50
2017-11-21T17:04:18.767Z,14.57
2017-11-21T17:06:45.436Z,15.07
2017-11-21T17:09:11.410Z,14.90
2017-11-21T17:11:38.427Z,14.80
2017-11-21T17:14:04.402Z,16.17
2017-11-21T17:16:30.346Z,16.70
2017-11-21T17:18:56.271Z,15.67
2017-11-21T17:21:22.259Z,15.87
2017-11-21T17:23:48.176Z,15.07
2017-11-21T17:26:14.097Z,15.50
2017-11-21T17:28:40.020Z,14.60
2017-11-21T17:31:05.952Z,16.10
2017-11-21T17:33:31.913Z,16.03
2017-11-21T17:35:58.565Z,16.00
2017-11-21T17:38:25.265Z,15.30
2017-11-21T17:40:51.161Z,14.73
2017-11-21T17:43:17.075Z,16.43
2017-11-21T17:45:43.001Z,15.40
2017-11-21T17:48:08.924Z,15.10
2017-11-21T17:50:34.961Z,15.30
2017-11-21T17:53:00.892Z,14.27
2017-11-21T17:55:26.839Z,14.47
2017-11-21T17:57:52.928Z,13.33
2017-11-21T18:00:18.868Z,14.00
2017-11-21T18:02:44.817Z,12.87
2017-11-21T18:05:10.737Z,13.70
2017-11-21T18:07:36.721Z,12.70
2017-11-21T18:10:02.692Z,13.17
2017-11-21T18:12:29.376Z,12.40
2017-11-21T18:14:55.299Z,12.03
2017-11-21T18:17:21.243Z,12.80
2017-11-21T18:19:47.175Z,12.47
2017-11-21T18:22:13.136Z,13.40
2017-11-21T18:24:39.094Z,12.60
2017-11-21T18:27:05.221Z,12.50
2017-11-21T18:29:31.192Z,12.80
2017-11-21T18:31:57.142Z,11.80
2017-11-21T18:34:23.083Z,12.33
2017-11-21T18:36:49.764Z,12.00
2017-11-21T18:39:15.687Z,14.07
2017-11-21T18:41:41.691Z,12.53
2017-11-21T18:44:07.678Z,12.10
2017-11-21T18:46:33.625Z,11.03
2017-11-21T18:48:59.584Z,10.80
2017-11-21T18:51:25.520Z,11.70
2017-11-21T18:53:51.560Z,11.87
2017-11-21T18:56:17.485Z,12.20
2017-11-21T18:58:44.196Z,12.57
2017-11-21T19:01:10.830Z,12.67
2017-11-21T19:03:36.798Z,11.90
2017-11-21T19:06:02.754Z,12.00
2017-11-21T19:08:28.661Z,12.80
2017-11-21T19:10:55.142Z,11.90
2017-11-21T19:13:21.103Z,11.27
2017-11-21T19:15:47.120Z,12.30
2017-11-21T19:18:13.060Z,13.97
2017-11-21T19:20:39.037Z,11.40
2017-11-21T19:23:05.772Z,11.80
2017-11-21T19:25:31.736Z,11.57
2017-11-21T19:27:57.654Z,11.87
2017-11-21T19:30:23.579Z,12.80
2017-11-21T19:32:49.500Z,11.67
2017-11-21T19:35:15.452Z,11.77
2017-11-21T19:37:41.423Z,12.17
2017-11-21T19:40:07.435Z,11.57
2017-11-21T19:42:33.390Z,11.73
2017-11-21T19:44:59.340Z,11.40
2017-11-21T19:47:25.240Z,11.03
2017-11-21T19:49:51.196Z,11.20
2017-11-21T19:52:17.123Z,11.87
2017-11-21T19:54:43.073Z,12.27
2017-11-21T19:57:09.611Z,11.60
2017-11-21T19:59:35.548Z,10.47
2017-11-21T20:02:01.500Z,11.60
2017-11-21T20:04:27.396Z,10.17
2017-11-21T20:06:54.052Z,10.43
2017-11-21T20:09:19.998Z,10.33
2017-11-21T20:11:45.957Z,9.83
2017-11-21T20:14:11.878Z,9.73
2017-11-21T20:16:37.868Z,9.73
2017-11-21T20:19:04.716Z,13.80
2017-11-21T20:21:30.684Z,11.50
2017-11-21T20:23:57.375Z,11.43
2017-11-21T20:26:24.040Z,11.40
2017-11-21T20:28:49.962Z,10.87
2017-11-21T20:31:16.600Z,10.90
2017-11-21T20:33:42.591Z,12.77
2017-11-21T20:36:09.232Z,12.40
2017-11-21T20:38:35.156Z,11.67
2017-11-21T20:41:01.896Z,12.43
2017-11-21T20:43:27.872Z,12.23
2017-11-21T20:45:53.805Z,12.93
2017-11-21T20:48:19.880Z,12.07
2017-11-21T20:50:45.801Z,11.63
2017-11-21T20:53:12.738Z,12.27
2017-11-21T20:55:38.665Z,12.20
2017-11-21T20:58:04.602Z,12.50
2017-11-21T21:00:30.545Z,11.33
2017-11-21T21:02:56.470Z,11.40
2017-11-21T21:05:22.382Z,12.33
2017-11-21T21:07:48.319Z,11.90
2017-11-21T21:10:14.357Z,11.70
2017-11-21T21:12:40.219Z,12.30
2017-11-21T21:15:06.175Z,10.30
2017-11-21T21:17:32.087Z,10.97
2017-11-21T21:19:58.016Z,9.60
2017-11-21T21:22:23.995Z,11.60
2017-11-21T21:24:49.910Z,11.27
2017-11-21T21:27:28.078Z,10.50
2017-11-21T21:29:54.000Z,9.67
2017-11-21T21:32:20.963Z,10.60
2017-11-21T21:34:47.639Z,10.33
2017-11-21T21:37:13.563Z,10.63
2017-11-21T21:39:39.525Z,10.90
2017-11-21T21:42:05.568Z,10.03
2017-11-21T21:44:31.514Z,10.37
2017-11-21T21:46:57.437Z,10.40
2017-11-21T21:49:23.354Z,10.80
2017-11-21T21:51:49.315Z,11.13
2017-11-21T21:54:15.257Z,10.07
2017-11-21T21:56:41.147Z,11.17
2017-11-21T21:59:07.071Z,10.37
2017-11-21T22:01:32.980Z,11.93
2017-11-21T22:03:58.961Z,11.47
2017-11-21T22:06:24.859Z,10.23
2017-11-21T22:08:50.788Z,11.63
2017-11-21T22:11:17.448Z,11.37
2017-11-21T22:13:43.390Z,12.93
2017-11-21T22:16:09.338Z,13.77
2017-11-21T22:18:35.401Z,12.77
2017-11-21T22:21:04.404Z,12.03
2017-11-21T22:23:30.360Z,11.93
2017-11-21T22:25:57.427Z,12.60
2017-11-21T22:28:23.364Z,11.07
2017-11-21T22:30:49.273Z,12.07
2017-11-21T22:33:16.216Z,11.90
2017-11-21T22:35:42.153Z,11.63
2017-11-21T22:38:08.821Z,12.03
2017-11-21T22:40:34.775Z,11.97
2017-11-21T22:43:00.686Z,12.37
2017-11-21T22:45:26.695Z,12.07
2017-11-21T22:47:52.640Z,12.57
2017-11-21T22:50:18.554Z,12.83
2017-11-21T22:52:44.484Z,13.10
2017-11-21T22:55:10.421Z,13.40
2017-11-21T22:57:36.331Z,12.50
2017-11-21T23:00:02.238Z,12.00
2017-11-21T23:02:28.174Z,11.67
2017-11-21T23:04:54.078Z,12.60
2017-11-21T23:07:20.807Z,12.03
2017-11-21T23:09:46.692Z,12.40
2017-11-21T23:12:12.621Z,11.67
2017-11-21T23:14:38.576Z,11.87
2017-11-21T23:17:04.524Z,13.33
2017-11-21T23:19:30.560Z,12.77
2017-11-21T23:21:57.271Z,15.87
2017-11-21T23:24:23.313Z,13.93
2017-11-21T23:26:49.841Z,14.57
2017-11-21T23:29:15.782Z,24.83
2017-11-21T23:31:42.437Z,12.03
2017-11-21T23:34:08.389Z,11.90
2017-11-21T23:36:34.335Z,13.20
2017-11-21T23:39:00.291Z,12.47
2017-11-21T23:41:26.259Z,13.70
2017-11-21T23:43:52.228Z,13.07
2017-11-21T23:46:18.937Z,12.00
2017-11-21T23:48:44.855Z,13.30
2017-11-21T23:51:10.757Z,12.57
2017-11-21T23:53:36.713Z,11.97
2017-11-21T23:56:02.670Z,12.63
2017-11-21T23:58:28.600Z,12.83
